Main page
METAR-TAF:

METAR-TAF

Airports :

Shimla Airport

Shimla, India

latitude: 31-04-54N, longitude: 77-04-05E, elevation: 1546 m

Current weather observation

The report was made 4 hours and 19 minutes ago, at 06:00 UTC
Wind 3 kt from the West
Temperature 20°C
Humidity 30%
Pressure 1024 hPa
Visibility: 7000 m

METAR: VISM 190600Z 27003KT 7000 NSC 20/02 Q1024

Time: 15:49 (10:19 UTC)


TAF: missing

Weather observations and forecasts of more than 4000 airports (METAR and TAF reports).

The available stations are represented by yellow and red dots on the map.

Hover mouse over dot to see the name of the station.

Then click to see weather observations and forecasts.

To change the map : click on the green buttons with a black cross to zoom in, on the green button with a dash to zoom out, or on the green arrows for adjacent maps.


METAR-TAF: